Time;durP1;ratioP1;P1;durP2;ratioP2;P2;SDS_P1;SDS_P2;PMS_P1;PMS_P2;Temp;Humidity;BMP_temperature;BMP_pressure;BME280_temperature;BME280_humidity;BME280_pressure;Samples;Min_cycle;Max_cycle;Signal;HPM_P1;HPM_P2
2021/06/14 00:00:31;;;;;;;13.52;5.45;;;;;;;14.33;88.02;102253.94;6278471;28;20072;-78
2021/06/14 00:03:33;;;;;;;11.00;5.07;;;;;;;14.30;87.43;102250.56;6278411;28;20484;-78
2021/06/14 00:06:34;;;;;;;11.57;5.90;;;;;;;14.27;87.10;102253.38;6277887;28;20441;-77
2021/06/14 00:09:37;;;;;;;13.02;5.75;;;;;;;14.16;87.84;102253.84;6278300;28;20535;-78
2021/06/14 00:12:38;;;;;;;12.20;5.25;;;;;;;14.15;87.61;102254.75;6277935;28;20048;-78
2021/06/14 00:15:42;;;;;;;16.33;5.60;;;;;;;14.07;87.26;102257.72;6277815;28;20048;-78
2021/06/14 00:18:44;;;;;;;11.73;5.00;;;;;;;14.03;87.34;102250.00;6277980;28;20416;-78
2021/06/14 00:21:45;;;;;;;10.05;4.70;;;;;;;14.00;87.86;102253.66;6277964;28;20500;-79
2021/06/14 00:24:48;;;;;;;11.07;5.38;;;;;;;13.98;87.91;102249.34;6278152;28;20053;-77
2021/06/14 00:27:49;;;;;;;10.95;5.40;;;;;;;13.95;88.16;102248.56;6278307;28;20052;-77
2021/06/14 00:30:51;;;;;;;11.80;5.03;;;;;;;13.89;88.35;102246.19;6277816;28;20049;-79
2021/06/14 00:33:53;;;;;;;17.92;5.97;;;;;;;13.84;89.05;102244.66;6277641;28;20049;-79
2021/06/14 00:36:54;;;;;;;13.88;5.35;;;;;;;13.78;88.72;102237.00;6277134;28;20060;-78
2021/06/14 00:39:57;;;;;;;16.20;5.93;;;;;;;13.73;88.90;102234.56;6277530;28;20049;-78
2021/06/14 00:42:59;;;;;;;12.45;5.40;;;;;;;13.67;88.47;102230.41;6277127;28;20059;-77
2021/06/14 00:46:00;;;;;;;11.52;5.47;;;;;;;13.64;89.19;102225.25;6277758;28;20053;-78
2021/06/14 00:49:02;;;;;;;13.20;5.35;;;;;;;13.61;89.41;102230.66;6277410;28;20049;-78
2021/06/14 00:52:05;;;;;;;13.75;6.40;;;;;;;13.59;89.37;102219.31;6277394;28;20436;-78
2021/06/14 00:55:10;;;;;;;14.80;5.75;;;;;;;13.52;89.57;102225.75;6277111;28;20056;-77
2021/06/14 00:58:11;;;;;;;14.68;5.70;;;;;;;13.46;89.66;102226.03;6277265;28;20045;-78
2021/06/14 01:01:13;;;;;;;13.70;5.60;;;;;;;13.43;89.41;102226.13;6277727;28;20516;-79
2021/06/14 01:04:14;;;;;;;14.02;5.43;;;;;;;13.39;89.72;102219.25;6276848;28;20048;-79
2021/06/14 01:07:16;;;;;;;10.93;5.20;;;;;;;13.31;89.79;102216.09;6277318;28;20138;-79
2021/06/14 01:10:19;;;;;;;19.50;6.65;;;;;;;13.25;89.73;102213.69;6276537;28;20419;-78
2021/06/14 01:13:36;;;;;;;13.73;6.22;;;;;;;13.22;90.37;102212.06;6276567;28;20045;-78
2021/06/14 01:16:45;;;;;;;13.25;5.20;;;;;;;13.18;90.61;102210.44;6276174;28;20048;-78
2021/06/14 01:20:08;;;;;;;15.18;6.28;;;;;;;13.11;90.51;102201.03;6276711;28;20053;-78
2021/06/14 01:23:30;;;;;;;13.85;5.40;;;;;;;13.10;90.99;102201.94;6264006;28;20053;-78
2021/06/14 01:26:40;;;;;;;12.60;5.72;;;;;;;13.07;91.28;102202.06;6276685;28;20056;-78
2021/06/14 01:29:43;;;;;;;12.43;5.65;;;;;;;13.02;90.76;102206.69;6276851;28;20048;-78
2021/06/14 01:32:47;;;;;;;11.70;5.60;;;;;;;13.04;91.18;102191.66;6276621;28;20493;-78
2021/06/14 01:35:53;;;;;;;10.77;5.30;;;;;;;13.02;90.80;102188.19;6276508;28;20492;-78
2021/06/14 01:38:56;;;;;;;16.58;5.57;;;;;;;12.97;90.97;102184.91;6276066;28;20045;-78
2021/06/14 01:41:58;;;;;;;13.55;5.93;;;;;;;12.92;90.70;102180.66;6276207;28;20049;-78
2021/06/14 01:45:02;;;;;;;13.35;5.60;;;;;;;12.90;91.13;102182.50;6276065;28;20053;-78
2021/06/14 01:48:05;;;;;;;14.68;6.13;;;;;;;12.88;91.66;102180.84;6275075;28;20041;-78
2021/06/14 01:51:08;;;;;;;15.07;5.93;;;;;;;12.86;91.10;102180.06;6276523;28;20049;-77
2021/06/14 01:54:11;;;;;;;12.57;5.57;;;;;;;12.84;91.13;102185.38;6275265;28;20056;-78
2021/06/14 01:57:14;;;;;;;14.27;6.38;;;;;;;12.80;90.66;102186.41;6275165;28;20045;-78
2021/06/14 02:00:19;;;;;;;9.88;5.20;;;;;;;12.78;90.87;102179.50;6275488;28;20238;-77
2021/06/14 02:03:21;;;;;;;14.75;6.07;;;;;;;12.76;90.77;102168.13;6276039;28;20044;-78
2021/06/14 02:06:24;;;;;;;14.00;5.60;;;;;;;12.74;91.08;102173.47;6275854;28;20049;-78
2021/06/14 02:09:25;;;;;;;11.45;5.60;;;;;;;12.72;91.46;102163.91;6275560;28;20045;-77
2021/06/14 02:12:29;;;;;;;13.98;6.10;;;;;;;12.69;91.29;102173.66;6275292;28;20067;-78
2021/06/14 02:15:32;;;;;;;18.90;6.85;;;;;;;12.64;91.75;102158.94;6275633;28;20140;-78
2021/06/14 02:18:33;;;;;;;14.05;5.85;;;;;;;12.61;91.56;102157.28;6275015;28;20505;-79
2021/06/14 02:21:35;;;;;;;8.98;5.05;;;;;;;12.61;92.08;102153.78;6275595;28;20049;-78
2021/06/14 02:24:37;;;;;;;13.73;5.78;;;;;;;12.58;91.76;102157.41;6275189;28;20067;-78
2021/06/14 02:27:39;;;;;;;12.55;6.10;;;;;;;12.54;91.18;102162.88;6275348;28;20045;-78
2021/06/14 02:30:42;;;;;;;14.23;5.95;;;;;;;12.48;91.67;102152.53;6275034;28;20049;-78
2021/06/14 02:33:44;;;;;;;15.27;6.05;;;;;;;12.43;91.30;102145.66;6274660;28;20424;-78
2021/06/14 02:36:48;;;;;;;14.98;5.95;;;;;;;12.43;91.38;102137.75;6274493;28;20045;-78
2021/06/14 02:39:52;;;;;;;20.90;6.25;;;;;;;12.43;90.77;102134.25;6274328;28;20041;-78
2021/06/14 02:42:54;;;;;;;12.70;6.15;;;;;;;12.39;91.33;102130.88;6275004;28;20057;-77
2021/06/14 02:45:57;;;;;;;14.45;5.53;;;;;;;12.33;91.57;102131.13;6274479;28;20507;-78
2021/06/14 02:48:59;;;;;;;13.15;5.47;;;;;;;12.30;92.32;102131.22;6274282;28;20511;-78
2021/06/14 02:52:03;;;;;;;11.98;5.53;;;;;;;12.34;91.69;102131.97;6274727;28;20049;-78
2021/06/14 02:55:08;;;;;;;18.17;6.00;;;;;;;12.28;91.98;102129.59;6274315;28;20045;-78
2021/06/14 02:58:09;;;;;;;16.73;5.93;;;;;;;12.23;92.26;102116.59;6273822;28;20183;-78
2021/06/14 03:01:13;;;;;;;11.18;5.88;;;;;;;12.27;92.91;102118.19;6273770;28;20052;-78
2021/06/14 03:04:16;;;;;;;15.73;6.95;;;;;;;12.23;92.91;102123.63;6273699;28;20052;-78
2021/06/14 03:07:20;;;;;;;13.85;5.82;;;;;;;12.18;92.79;102106.22;6273860;28;20060;-78
2021/06/14 03:10:24;;;;;;;12.77;5.50;;;;;;;12.17;93.31;102108.88;6273658;28;20405;-79
2021/06/14 03:13:25;;;;;;;12.20;5.07;;;;;;;12.18;93.21;102113.28;6273442;28;20048;-78
2021/06/14 03:16:30;;;;;;;13.63;5.95;;;;;;;12.20;93.61;102103.50;6273803;28;20063;-78
2021/06/14 03:19:32;;;;;;;11.63;4.85;;;;;;;12.16;93.92;102105.41;6273141;28;20045;-79
2021/06/14 03:22:34;;;;;;;14.93;6.00;;;;;;;12.17;94.07;102108.88;6274108;28;20052;-78
2021/06/14 03:25:36;;;;;;;13.73;5.65;;;;;;;12.16;94.02;102104.53;6273446;28;20045;-77
2021/06/14 03:28:40;;;;;;;11.52;5.45;;;;;;;12.17;94.14;102098.34;6273889;28;20496;-78
2021/06/14 03:31:44;;;;;;;13.63;5.47;;;;;;;12.20;93.65;102100.88;6273233;28;20413;-78
2021/06/14 03:34:46;;;;;;;16.13;6.05;;;;;;;12.21;94.11;102096.47;6273417;28;20048;-78
2021/06/14 03:37:48;;;;;;;11.48;6.40;;;;;;;12.23;94.57;102094.66;6273228;28;20056;-78
2021/06/14 03:40:49;;;;;;;11.27;5.38;;;;;;;12.23;94.73;102102.56;6273016;28;20049;-78
2021/06/14 03:43:51;;;;;;;12.50;6.13;;;;;;;12.27;94.41;102101.53;6273533;28;20053;-78
2021/06/14 03:46:54;;;;;;;10.77;5.75;;;;;;;12.25;95.28;102112.09;6273815;28;20041;-78
2021/06/14 03:49:55;;;;;;;15.65;5.97;;;;;;;12.25;95.06;102105.97;6273524;28;20518;-79
2021/06/14 03:52:56;;;;;;;19.25;6.70;;;;;;;12.28;95.58;102108.50;6273380;28;20056;-79
2021/06/14 03:56:00;;;;;;;14.85;6.50;;;;;;;12.30;95.32;102110.13;6273168;28;20059;-78
2021/06/14 03:59:02;;;;;;;20.25;6.65;;;;;;;12.34;95.70;102100.34;6273179;28;20052;-78
2021/06/14 04:02:05;;;;;;;12.27;5.63;;;;;;;12.41;96.24;102110.59;6273488;28;20049;-79
2021/06/14 04:05:08;;;;;;;11.70;5.43;;;;;;;12.38;95.71;102099.31;6272970;28;20049;-78
2021/06/14 04:08:11;;;;;;;19.05;6.10;;;;;;;12.39;96.21;102103.66;6273310;28;20053;-78
2021/06/14 04:11:13;;;;;;;16.88;6.20;;;;;;;12.36;95.99;102096.75;6274702;28;20068;-79
2021/06/14 04:14:14;;;;;;;16.60;6.45;;;;;;;12.36;96.35;102096.75;6277741;28;20053;-78
2021/06/14 04:17:17;;;;;;;11.00;6.53;;;;;;;12.42;96.27;102093.00;6277567;28;20048;-78
2021/06/14 04:20:19;;;;;;;11.95;6.05;;;;;;;12.46;95.83;102094.59;6277452;28;20060;-78
2021/06/14 04:23:20;;;;;;;15.45;6.18;;;;;;;12.45;95.58;102090.25;6277570;28;20048;-77
2021/06/14 04:26:21;;;;;;;15.70;6.60;;;;;;;12.44;95.44;102097.31;6277105;28;20056;-78
2021/06/14 04:29:23;;;;;;;14.20;5.97;;;;;;;12.50;94.94;102090.91;6276998;28;20052;-78
2021/06/14 04:32:26;;;;;;;14.07;6.88;;;;;;;12.54;94.80;102092.53;6276295;28;20045;-78
2021/06/14 04:35:27;;;;;;;13.65;5.82;;;;;;;12.62;93.81;102094.81;6275653;28;20053;-77
2021/06/14 04:38:28;;;;;;;11.63;6.15;;;;;;;12.74;93.23;102101.41;6274818;28;20064;-77
2021/06/14 04:41:30;;;;;;;14.15;6.50;;;;;;;12.87;91.82;102106.09;6274933;22;20048;-75
2021/06/14 04:44:32;;;;;;;10.77;5.40;;;;;;;12.97;91.85;102105.72;6248301;28;20057;-75
2021/06/14 04:47:35;;;;;;;16.50;6.72;;;;;;;12.92;92.03;102113.84;6250072;28;20046;-75
2021/06/14 04:50:36;;;;;;;14.55;6.30;;;;;;;12.94;93.11;102120.78;6249638;28;20072;-75
2021/06/14 04:53:37;;;;;;;14.00;7.10;;;;;;;13.03;92.88;102126.56;6249851;28;20511;-75
2021/06/14 04:56:39;;;;;;;17.58;6.18;;;;;;;13.10;92.50;102128.91;6249686;28;20059;-75
2021/06/14 04:59:40;;;;;;;12.68;6.20;;;;;;;13.19;92.17;102122.38;6249722;28;20057;-75
2021/06/14 05:02:44;;;;;;;15.98;6.70;;;;;;;13.24;92.71;102125.72;6227474;28;20045;-75
2021/06/14 05:05:45;;;;;;;14.68;6.13;;;;;;;13.33;92.04;102124.47;6224977;28;20096;-75
2021/06/14 05:08:46;;;;;;;14.25;6.60;;;;;;;13.46;90.64;102117.75;6224991;28;20053;-75
2021/06/14 05:11:48;;;;;;;15.63;6.05;;;;;;;13.52;91.11;102128.03;6224724;28;20054;-75
2021/06/14 05:14:49;;;;;;;18.75;6.30;;;;;;;13.67;89.89;102127.38;6224687;28;20053;-75
2021/06/14 05:17:52;;;;;;;15.10;6.45;;;;;;;13.76;89.30;102119.94;6224559;28;20050;-74
2021/06/14 05:20:53;;;;;;;10.95;5.05;;;;;;;13.85;89.41;102106.31;6224424;28;20068;-75
2021/06/14 05:23:55;;;;;;;15.02;5.95;;;;;;;13.85;90.04;102104.56;6222514;28;20049;-75
2021/06/14 05:26:56;;;;;;;16.52;5.47;;;;;;;13.93;89.28;102104.19;6222819;28;20050;-75
2021/06/14 05:29:57;;;;;;;19.95;5.82;;;;;;;14.05;88.83;102105.44;6222585;28;20052;-75
2021/06/14 05:33:01;;;;;;;15.27;6.00;;;;;;;14.11;88.87;102108.63;6222223;28;20056;-75
2021/06/14 05:36:03;;;;;;;12.82;5.10;;;;;;;14.21;91.52;102107.25;6223843;28;20054;-75
2021/06/14 05:39:05;;;;;;;12.73;5.90;;;;;;;14.22;91.92;102102.88;6224125;28;20049;-75
2021/06/14 05:42:06;;;;;;;12.45;5.90;;;;;;;14.21;92.42;102104.63;6223929;28;20054;-75
2021/06/14 05:45:09;;;;;;;13.93;5.55;;;;;;;14.26;92.19;102100.91;6215885;28;20050;-75
2021/06/14 05:48:11;;;;;;;17.17;5.45;;;;;;;14.29;92.63;102106.06;6224271;28;20050;-75
2021/06/14 05:51:13;;;;;;;15.60;5.70;;;;;;;14.39;91.89;102102.91;6224114;28;20042;-75
2021/06/14 05:54:14;;;;;;;11.40;4.80;;;;;;;14.39;92.02;102102.91;6223625;28;20425;-75
2021/06/14 05:57:16;;;;;;;15.27;5.28;;;;;;;14.55;88.55;102107.50;6223778;28;20046;-75
2021/06/14 06:00:18;;;;;;;14.35;4.82;;;;;;;14.63;87.29;102106.22;6223700;28;20053;-75
2021/06/14 06:03:21;;;;;;;13.23;4.72;;;;;;;14.76;87.42;102102.94;6223486;28;20049;-74
2021/06/14 06:06:22;;;;;;;14.45;5.15;;;;;;;14.85;86.56;102102.47;6217716;28;20061;-74
2021/06/14 06:09:23;;;;;;;8.82;4.30;;;;;;;14.98;82.38;102100.94;6223061;28;20053;-75
2021/06/14 06:12:25;;;;;;;11.18;4.32;;;;;;;15.16;80.59;102085.91;6223085;28;20080;-75
2021/06/14 06:15:26;;;;;;;9.70;3.55;;;;;;;15.33;80.04;102083.25;6223052;28;20050;-74
2021/06/14 06:18:29;;;;;;;9.60;3.88;;;;;;;15.42;80.52;102089.88;6223052;28;20076;-74
2021/06/14 06:21:30;;;;;;;13.43;4.15;;;;;;;15.52;79.58;102093.75;6223168;28;20050;-74
2021/06/14 06:24:32;;;;;;;8.48;3.78;;;;;;;15.52;81.30;102087.59;6222682;28;20050;-74
2021/06/14 06:27:33;;;;;;;7.70;4.18;;;;;;;15.57;80.77;102077.59;6222954;28;20053;-74
2021/06/14 06:30:36;;;;;;;10.35;4.05;;;;;;;15.61;80.80;102077.38;6222651;28;20069;-74
2021/06/14 06:33:41;;;;;;;13.40;5.18;;;;;;;15.70;78.39;102081.34;6222482;28;20184;-74
2021/06/14 06:36:42;;;;;;;14.10;5.18;;;;;;;15.85;77.53;102080.56;6222048;28;20409;-74
2021/06/14 06:39:43;;;;;;;11.98;4.88;;;;;;;15.93;79.47;102078.31;6222672;28;20053;-74
2021/06/14 06:42:45;;;;;;;13.20;3.90;;;;;;;16.02;78.98;102076.97;6222693;28;20053;-74
2021/06/14 06:45:47;;;;;;;8.77;3.58;;;;;;;16.11;77.21;102072.94;6222548;28;20050;-74
2021/06/14 06:48:50;;;;;;;13.85;3.80;;;;;;;16.28;75.31;102075.53;6222536;28;20073;-74
2021/06/14 06:51:51;;;;;;;9.50;3.47;;;;;;;16.40;75.36;102068.69;6221473;28;20046;-74
2021/06/14 06:54:52;;;;;;;10.68;3.80;;;;;;;16.51;72.99;102066.25;6222075;28;20049;-75
2021/06/14 06:57:54;;;;;;;8.70;3.20;;;;;;;16.59;72.28;102066.69;6222469;28;20045;-72
2021/06/14 07:00:55;;;;;;;11.90;3.78;;;;;;;16.74;71.55;102057.00;6222037;28;20076;-74
2021/06/14 07:03:58;;;;;;;7.80;3.42;;;;;;;16.85;71.93;102051.94;6222215;28;20555;-74
2021/06/14 07:06:59;;;;;;;8.68;3.20;;;;;;;16.86;71.94;102050.13;6222259;28;20056;-74
2021/06/14 07:10:04;;;;;;;7.72;3.47;;;;;;;16.90;74.06;102052.50;6220715;28;20065;-74
2021/06/14 07:13:06;;;;;;;8.45;3.97;;;;;;;16.91;73.90;102046.25;6215111;28;20072;-76
2021/06/14 07:16:07;;;;;;;11.38;3.80;;;;;;;17.04;72.23;102053.50;6220324;28;20046;-77
2021/06/14 07:19:10;;;;;;;13.02;3.90;;;;;;;17.23;68.88;102041.66;6220596;28;20042;-77
2021/06/14 07:22:11;;;;;;;10.63;3.30;;;;;;;17.30;70.07;102033.31;6220657;28;20120;-76
2021/06/14 07:25:14;;;;;;;10.00;3.55;;;;;;;17.40;71.49;102035.31;6221030;28;20050;-77
2021/06/14 07:28:16;;;;;;;9.65;3.75;;;;;;;17.45;69.01;102035.91;6217839;28;20052;-77
2021/06/14 07:31:17;;;;;;;8.43;3.40;;;;;;;17.42;70.23;102022.78;6221678;28;20100;-77
2021/06/14 07:34:20;;;;;;;7.68;3.45;;;;;;;17.53;68.87;102027.41;6221775;28;20398;-76
2021/06/14 07:37:22;;;;;;;14.45;4.18;;;;;;;17.68;68.49;102023.81;6222261;28;20050;-76
2021/06/14 07:40:23;;;;;;;6.53;2.85;;;;;;;17.77;68.32;102019.75;6221585;28;20056;-76
2021/06/14 07:43:25;;;;;;;13.38;3.97;;;;;;;17.82;68.09;102012.34;6221912;28;20050;-76
2021/06/14 07:46:27;;;;;;;10.77;3.92;;;;;;;17.92;68.46;102002.81;6223429;28;20124;-75
2021/06/14 07:49:29;;;;;;;10.73;3.60;;;;;;;18.06;66.32;101996.59;6202529;28;20050;-75
2021/06/14 07:52:31;;;;;;;10.25;3.60;;;;;;;18.09;63.80;102004.41;6202729;28;20053;-76
2021/06/14 07:55:34;;;;;;;11.27;3.47;;;;;;;18.21;62.59;101995.63;6202307;28;20414;-76
2021/06/14 07:58:35;;;;;;;7.65;3.53;;;;;;;18.22;63.73;101989.34;6202695;28;20055;-76
2021/06/14 08:01:36;;;;;;;7.40;3.15;;;;;;;18.23;64.21;101984.88;6202112;28;20042;-76
2021/06/14 08:04:39;;;;;;;18.08;7.22;;;;;;;18.27;63.29;101980.22;6202242;28;20062;-77
2021/06/14 08:07:41;;;;;;;15.77;4.35;;;;;;;18.31;63.32;101987.03;6201836;28;20054;-75
2021/06/14 08:10:43;;;;;;;6.93;2.92;;;;;;;18.54;64.23;101980.19;6201916;28;20054;-75
2021/06/14 08:13:45;;;;;;;10.63;3.65;;;;;;;18.65;61.49;101975.81;6202106;28;20054;-75
2021/06/14 08:16:46;;;;;;;6.82;3.20;;;;;;;18.64;59.57;101979.44;6225587;28;20054;-76
2021/06/14 08:19:52;;;;;;;7.97;3.13;;;;;;;18.66;58.33;101984.66;6226003;28;20050;-77
2021/06/14 08:26:22;;;;;;;11.45;3.15;;;;;;;18.72;63.13;101971.84;6224344;28;20050;-76
2021/06/14 08:29:23;;;;;;;11.63;3.10;;;;;;;18.81;60.95;101972.16;6223975;28;20042;-76
2021/06/14 08:32:24;;;;;;;9.30;3.40;;;;;;;18.87;61.25;101972.59;6225725;28;20600;-76
2021/06/14 08:35:29;;;;;;;9.02;3.15;;;;;;;19.09;59.54;101965.78;6225552;28;20054;-75
2021/06/14 08:38:32;;;;;;;10.88;3.45;;;;;;;19.13;61.62;101961.94;6225323;28;20546;-77
2021/06/14 08:41:33;;;;;;;8.70;3.55;;;;;;;19.33;58.79;101960.53;6225447;28;20050;-77
2021/06/14 08:44:36;;;;;;;13.93;3.72;;;;;;;19.37;56.87;101930.88;6225431;28;20060;-75
2021/06/14 08:47:39;;;;;;;13.98;3.92;;;;;;;19.37;57.84;101944.19;6225607;28;20053;-75
2021/06/14 08:50:42;;;;;;;11.50;3.40;;;;;;;19.40;57.44;101933.34;6225692;28;20045;-76
2021/06/14 08:53:44;;;;;;;13.60;3.63;;;;;;;19.41;58.03;101924.38;6225449;28;20065;-76
2021/06/14 08:56:45;;;;;;;8.68;3.38;;;;;;;19.41;59.89;101927.03;6223613;28;20050;-77
2021/06/14 08:59:47;;;;;;;8.23;3.60;;;;;;;19.38;61.79;101924.56;6224211;28;20053;-72
2021/06/14 09:02:49;;;;;;;9.75;3.67;;;;;;;19.44;58.49;101924.16;6224108;28;20425;-75
2021/06/14 09:05:51;;;;;;;13.05;3.42;;;;;;;19.65;55.46;101910.25;6222230;28;20053;-75
2021/06/14 09:08:58;;;;;;;7.53;2.92;;;;;;;19.73;56.30;101903.38;6225041;28;20052;-75
2021/06/14 09:12:02;;;;;;;11.05;3.60;;;;;;;19.68;58.06;101900.22;6224927;28;20136;-76
2021/06/14 09:15:09;;;;;;;9.88;3.33;;;;;;;19.73;58.28;101903.38;6225379;28;20046;-76
2021/06/14 09:18:18;;;;;;;9.00;3.70;;;;;;;19.69;58.07;101887.72;6225133;28;20050;-76
2021/06/14 09:21:20;;;;;;;;;;;;;;;19.73;58.98;101890.06;6225960;28;20052;-75
2021/06/14 09:24:22;;;;;;;9.50;2.90;;;;;;;19.88;56.93;101871.19;6224548;28;19922;-75
2021/06/14 09:27:32;;;;;;;12.50;3.70;;;;;;;20.09;55.55;101882.94;6225112;28;20054;-76
2021/06/14 09:30:33;;;;;;;11.23;4.03;;;;;;;20.17;55.55;101874.38;6224724;28;20050;-76
2021/06/14 09:33:35;;;;;;;11.57;3.70;;;;;;;20.15;56.16;101865.59;6225006;28;20050;-76
2021/06/14 09:36:38;;;;;;;7.97;3.08;;;;;;;20.31;54.72;101857.28;6224913;28;20054;-77
2021/06/14 09:39:42;;;;;;;6.80;2.65;;;;;;;20.31;57.77;101851.94;6224927;28;20497;-76
2021/06/14 09:42:43;;;;;;;10.13;3.13;;;;;;;20.31;58.56;101866.16;6225143;28;20056;-76
2021/06/14 09:45:45;;;;;;;7.32;2.83;;;;;;;20.45;54.85;101855.25;6225056;28;20052;-76
2021/06/14 09:48:47;;;;;;;7.55;3.20;;;;;;;20.57;54.80;101848.13;6224558;28;20571;-76
2021/06/14 09:51:53;;;;;;;6.25;2.92;;;;;;;20.67;55.29;101849.13;6224264;28;20050;-77
2021/06/14 09:55:05;;;;;;;8.13;2.50;;;;;;;20.70;55.20;101843.53;6224324;28;20054;-77
2021/06/14 09:58:11;;;;;;;10.57;3.40;;;;;;;20.66;57.63;101830.53;6224149;28;20066;-77
2021/06/14 10:01:13;;;;;;;7.97;2.90;;;;;;;20.74;57.38;101826.28;6223674;28;20057;-77
2021/06/14 10:04:17;;;;;;;9.63;2.70;;;;;;;20.98;55.33;101838.66;6220287;28;20046;-77
2021/06/14 10:07:21;;;;;;;6.55;2.88;;;;;;;21.17;54.92;101833.56;6213982;28;20062;-76
2021/06/14 10:10:25;;;;;;;7.53;3.13;;;;;;;21.15;53.63;101829.28;6200940;28;20046;-76
2021/06/14 10:13:28;;;;;;;8.75;3.00;;;;;;;21.11;54.91;101828.69;6199268;28;20561;-76
2021/06/14 10:16:30;;;;;;;10.25;3.60;;;;;;;21.20;55.00;101827.09;6199378;28;20138;-76
2021/06/14 10:19:38;;;;;;;7.85;2.92;;;;;;;21.39;54.56;101826.47;6199430;28;20086;-76
2021/06/14 10:22:41;;;;;;;6.93;2.70;;;;;;;21.36;54.91;101824.91;6233299;28;20519;-75
2021/06/14 10:25:42;;;;;;;9.68;3.05;;;;;;;21.55;53.24;101824.25;6247743;28;20049;-76
2021/06/14 10:28:44;;;;;;;7.95;3.13;;;;;;;21.54;52.03;101814.53;6247667;28;20674;-76
2021/06/14 10:31:48;;;;;;;11.27;2.65;;;;;;;21.51;53.78;101804.06;6247869;28;20068;-73
2021/06/14 10:34:52;;;;;;;9.23;3.20;;;;;;;21.87;52.42;101807.34;6247807;28;20496;-76
2021/06/14 10:37:55;;;;;;;9.45;3.15;;;;;;;21.84;52.39;101808.44;6245263;28;20050;-75
2021/06/14 10:40:57;;;;;;;6.88;2.72;;;;;;;22.07;50.79;101801.13;6237104;22;20053;-75
2021/06/14 10:43:58;;;;;;;9.00;3.20;;;;;;;22.08;49.91;101794.81;6221873;28;20049;-76
2021/06/14 10:47:00;;;;;;;13.63;2.97;;;;;;;22.14;49.57;101790.78;6200216;28;20057;-76
2021/06/14 10:50:02;;;;;;;11.48;3.10;;;;;;;22.25;52.22;101788.03;6198194;28;20336;-75
2021/06/14 10:53:05;;;;;;;8.50;2.50;;;;;;;22.40;48.36;101769.78;6198127;28;20054;-76
2021/06/14 10:56:08;;;;;;;9.02;2.58;;;;;;;22.53;46.56;101760.56;6198674;28;20042;-76
2021/06/14 10:59:13;;;;;;;8.07;3.05;;;;;;;22.66;49.34;101772.84;6197149;28;20598;-75
2021/06/14 11:02:18;;;;;;;9.27;2.85;;;;;;;22.68;48.91;101766.38;6197251;28;20129;-77
2021/06/14 11:05:36;;;;;;;5.22;2.53;;;;;;;22.89;49.41;101765.44;6197877;28;20492;-75
2021/06/14 11:08:39;;;;;;;8.02;2.63;;;;;;;23.08;47.97;101770.06;6196995;28;20057;-76
2021/06/14 11:11:49;;;;;;;6.53;2.50;;;;;;;23.18;46.94;101779.81;6198039;28;20054;-75
2021/06/14 11:14:51;;;;;;;4.82;2.40;;;;;;;23.37;44.73;101776.28;6174061;28;20058;-75
2021/06/14 11:17:53;;;;;;;5.18;2.60;;;;;;;23.53;45.04;101771.22;6173857;28;20070;-77
2021/06/14 11:21:07;;;;;;;5.65;2.78;;;;;;;23.64;45.47;101772.94;6183878;28;20042;-76
2021/06/14 11:24:12;;;;;;;8.95;2.20;;;;;;;23.82;46.81;101772.22;6197761;28;20061;-78
2021/06/14 11:27:15;;;;;;;8.50;2.58;;;;;;;23.99;43.88;101764.28;6198910;28;20066;-78
2021/06/14 11:30:19;;;;;;;6.35;2.40;;;;;;;24.30;43.61;101775.66;6198547;28;20047;-75
2021/06/14 11:33:25;;;;;;;5.00;2.40;;;;;;;24.55;43.59;101778.72;6198369;28;20053;-77
2021/06/14 11:36:28;;;;;;;5.75;2.28;;;;;;;24.86;42.96;101781.97;6199410;28;20078;-75
2021/06/14 11:39:30;;;;;;;5.85;2.58;;;;;;;25.11;42.98;101784.94;6200081;28;20050;-78
2021/06/14 11:42:43;;;;;;;3.63;2.28;;;;;;;25.17;41.49;101785.22;6198190;28;20050;-76
2021/06/14 11:45:46;;;;;;;7.13;2.95;;;;;;;25.20;41.66;101790.25;6197653;28;20086;-76
2021/06/14 11:48:51;;;;;;;12.68;5.18;;;;;;;25.29;41.43;101783.13;6197800;28;20506;-76
2021/06/14 11:51:53;;;;;;;6.65;2.53;;;;;;;25.47;41.88;101758.91;6197769;28;20050;-74
2021/06/14 11:54:58;;;;;;;7.30;2.35;;;;;;;25.78;38.94;101759.38;6197824;28;20062;-76
2021/06/14 11:58:01;;;;;;;9.88;3.28;;;;;;;25.80;41.55;101773.56;6198389;28;20042;-76
2021/06/14 12:01:05;;;;;;;7.70;2.20;;;;;;;25.83;42.08;101757.06;6198160;28;20433;-78
2021/06/14 12:04:08;;;;;;;5.80;2.80;;;;;;;26.26;38.57;101766.13;6198248;28;20057;-77
2021/06/14 12:07:09;;;;;;;9.00;2.70;;;;;;;26.47;39.90;101746.88;6199147;28;20046;-78
2021/06/14 12:10:14;;;;;;;4.90;2.30;;;;;;;26.67;40.06;101742.06;6191286;28;20054;-76
2021/06/14 12:13:18;;;;;;;11.50;2.65;;;;;;;26.90;38.51;101740.47;6197511;28;20133;-75
2021/06/14 12:16:24;;;;;;;20.58;5.47;;;;;;;27.24;40.97;101731.44;6197602;28;20058;-75
2021/06/14 12:19:28;;;;;;;7.70;2.88;;;;;;;27.24;38.93;101720.63;6197490;28;20054;-75
2021/06/14 12:22:31;;;;;;;10.85;3.67;;;;;;;27.47;40.45;101710.03;6197010;28;20144;-76
2021/06/14 12:25:33;;;;;;;75.07;14.85;;;;;;;27.69;39.42;101713.91;6197128;28;20124;-77
2021/06/14 12:28:36;;;;;;;4.65;2.50;;;;;;;27.85;37.17;101708.50;6197422;28;20062;-77
2021/06/14 12:31:37;;;;;;;7.40;2.58;;;;;;;28.06;38.15;101708.78;6197833;28;20057;-77
2021/06/14 12:34:41;;;;;;;6.32;2.05;;;;;;;28.26;36.83;101703.00;6201372;28;20062;-76
2021/06/14 12:37:43;;;;;;;7.10;2.80;;;;;;;28.22;35.16;101707.06;6201625;28;20046;-75
2021/06/14 12:40:46;;;;;;;6.65;2.47;;;;;;;28.04;34.19;101707.28;6201149;28;20434;-75
2021/06/14 12:43:49;;;;;;;6.03;2.30;;;;;;;27.84;35.20;101706.81;6201255;28;20057;-75
2021/06/14 12:46:50;;;;;;;8.52;3.15;;;;;;;27.93;35.54;101705.78;6200380;28;20074;-76
2021/06/14 12:49:53;;;;;;;7.32;2.42;;;;;;;27.63;36.51;101693.81;6200860;28;20664;-75
2021/06/14 12:52:55;;;;;;;5.78;2.75;;;;;;;27.99;36.67;101701.56;6200087;28;20058;-74
2021/06/14 12:56:00;;;;;;;4.80;2.80;;;;;;;28.24;35.73;101683.38;6201038;28;20054;-75
2021/06/14 12:59:01;;;;;;;8.32;2.15;;;;;;;28.21;35.06;101684.59;6200855;28;20418;-75
2021/06/14 13:02:04;;;;;;;12.13;2.78;;;;;;;28.10;36.67;101690.38;6201178;28;20387;-73
2021/06/14 13:05:14;;;;;;;8.63;2.90;;;;;;;28.19;36.36;101688.47;6200970;28;20248;-74
2021/06/14 13:08:17;;;;;;;9.18;2.78;;;;;;;28.38;36.31;101679.97;6200904;28;20057;-74
2021/06/14 13:11:20;;;;;;;13.20;3.22;;;;;;;28.77;35.07;101679.94;6200757;28;20129;-76
2021/06/14 13:14:27;;;;;;;10.55;2.60;;;;;;;28.69;34.68;101677.28;6200753;28;20046;-74
2021/06/14 13:17:29;;;;;;;8.25;2.30;;;;;;;28.61;33.02;101671.91;6200919;28;20066;-75
2021/06/14 13:20:34;;;;;;;6.38;2.72;;;;;;;29.00;36.76;101674.56;6200362;28;20050;-76
2021/06/14 13:23:46;;;;;;;7.80;2.65;;;;;;;29.11;33.52;101658.94;6200606;28;20526;-76
2021/06/14 13:26:51;;;;;;;12.07;3.17;;;;;;;29.06;31.61;101657.59;6200720;28;20050;-74
2021/06/14 13:29:54;;;;;;;5.78;2.33;;;;;;;29.02;32.85;101650.91;6200640;28;20051;-77
2021/06/14 13:33:03;;;;;;;7.60;2.72;;;;;;;29.02;31.21;101647.31;6200272;28;20054;-74
2021/06/14 13:36:05;;;;;;;8.77;2.45;;;;;;;29.13;30.70;101654.19;6200934;28;20057;-75
2021/06/14 13:39:09;;;;;;;6.32;2.42;;;;;;;29.05;34.50;101649.66;6199978;28;20050;-76
2021/06/14 13:42:14;;;;;;;9.77;2.60;;;;;;;28.81;31.88;101643.38;6199788;28;20520;-76
2021/06/14 13:45:17;;;;;;;8.68;2.47;;;;;;;29.00;32.22;101639.38;6199778;28;20426;-76
2021/06/14 13:48:20;;;;;;;6.07;2.22;;;;;;;29.08;30.63;101630.38;6200203;28;20095;-75
2021/06/14 13:51:21;;;;;;;11.38;3.10;;;;;;;29.09;35.27;101634.75;6199848;28;20414;-76
2021/06/14 13:54:23;;;;;;;9.63;2.38;;;;;;;29.13;35.41;101624.41;6199677;28;20053;-76
2021/06/14 13:57:26;;;;;;;8.18;2.55;;;;;;;28.99;33.89;101626.88;6199594;28;20050;-76
2021/06/14 14:00:28;;;;;;;4.70;2.35;;;;;;;29.26;32.15;101628.19;6198159;28;20042;-75
2021/06/14 14:03:30;;;;;;;7.53;2.53;;;;;;;29.70;30.87;101632.00;6199090;28;20898;-76
2021/06/14 14:06:32;;;;;;;6.38;2.40;;;;;;;29.49;32.17;101622.72;6199822;28;20047;-74